Terminal Aerodrome Forecast
Issued by NWS

Home | Current Version | Previous Version | Text Only | Print | Product List | Glossary On
Versions: 1 2 3 4 5 6 7 8 9 10 11 12 13 14 15
549
FTUS44 KBMX 271845 AAA
TAFANB
TAF AMD
KANB 271845Z 2719/2818 08008G16KT 4SM RA BR OVC070
     FM272100 09005KT P6SM VCSH BKN015 OVC040
     FM272300 07005KT 5SM BR OVC007
     FM280900 06006KT 4SM BR VCSH OVC007=

USA.gov is the U.S. government's official web portal to all federal, state and local government web resources and services.